Airlie, Virginia
Current Conditions -  °F | °C
As of 3:15 PM on Sunday 23 Nov 2014 (Local Time) from KHWY Reporting Station
Clear Clear  
Wind Chill: 61°   Ceiling: Unl
Heat Index: 61°   Visibility: 10mi
Dew Point: 44°   Wind: 3mph
Humidity: 53%   Direction: 190°S
Pressure: 30.07"   Gusts: NA
Location:  38.6876°N, 77.819°W
Report Text: KHWY 232015Z AUTO 19003KT 10SM CLR 16/07 A3007 RMK AO2 T01600065
Loading
Personal Weather Stations






























Interactive Weather Map New forecast layout! Learn more

10-Day Weather Forecast

Advertisements
Track Severe Weather on mobile